sensor_id;sensor_type;location;lat;lon;timestamp;P1;durP1;ratioP1;P2;durP2;ratioP2
66667;SDS011;57205;51.438;-2.006;2022-11-18T13:56:32;5.97;;;1.77;;
66667;SDS011;57205;51.438;-2.006;2022-11-18T13:58:58;5.82;;;2.72;;
66667;SDS011;57205;51.438;-2.006;2022-11-18T14:01:31;8.65;;;1.88;;
66667;SDS011;57205;51.438;-2.006;2022-11-18T14:03:59;5.35;;;2.05;;
66667;SDS011;57205;51.438;-2.006;2022-11-18T14:06:31;6.53;;;3.28;;
66667;SDS011;57205;51.438;-2.006;2022-11-18T14:09:24;5.47;;;2.22;;
66667;SDS011;57205;51.438;-2.006;2022-11-18T14:12:00;4.22;;;1.90;;
66667;SDS011;57205;51.438;-2.006;2022-11-18T14:14:38;5.07;;;1.33;;
66667;SDS011;57205;51.438;-2.006;2022-11-18T14:17:21;6.78;;;1.77;;
66667;SDS011;57205;51.438;-2.006;2022-11-18T14:19:50;4.47;;;1.20;;
66667;SDS011;57205;51.438;-2.006;2022-11-18T14:22:24;4.00;;;1.25;;
66667;SDS011;57205;51.438;-2.006;2022-11-18T14:24:55;7.70;;;1.80;;
66667;SDS011;57205;51.438;-2.006;2022-11-18T14:35:27;4.85;;;1.75;;
66667;SDS011;57205;51.438;-2.006;2022-11-18T14:37:54;3.67;;;1.40;;
66667;SDS011;57205;51.438;-2.006;2022-11-18T14:40:22;11.45;;;2.85;;
66667;SDS011;57205;51.438;-2.006;2022-11-18T14:42:48;7.72;;;1.45;;
66667;SDS011;57205;51.438;-2.006;2022-11-18T14:45:13;2.35;;;1.13;;
66667;SDS011;57205;51.438;-2.006;2022-11-18T14:47:39;5.82;;;1.00;;
66667;SDS011;57205;51.438;-2.006;2022-11-18T14:50:11;12.40;;;1.80;;
66667;SDS011;57205;51.438;-2.006;2022-11-18T14:52:37;5.63;;;1.42;;
66667;SDS011;57205;51.438;-2.006;2022-11-18T14:55:02;6.80;;;1.98;;
66667;SDS011;57205;51.438;-2.006;2022-11-18T14:57:28;7.80;;;2.05;;
66667;SDS011;57205;51.438;-2.006;2022-11-18T14:59:55;8.65;;;2.50;;
66667;SDS011;57205;51.438;-2.006;2022-11-18T15:02:20;8.70;;;2.83;;
66667;SDS011;57205;51.438;-2.006;2022-11-18T15:04:46;12.25;;;4.22;;
66667;SDS011;57205;51.438;-2.006;2022-11-18T15:07:13;9.35;;;2.70;;
66667;SDS011;57205;51.438;-2.006;2022-11-18T15:09:39;9.45;;;3.30;;
66667;SDS011;57205;51.438;-2.006;2022-11-18T15:12:05;7.93;;;2.25;;
66667;SDS011;57205;51.438;-2.006;2022-11-18T15:14:31;6.30;;;1.85;;
66667;SDS011;57205;51.438;-2.006;2022-11-18T15:16:56;3.67;;;1.33;;
66667;SDS011;57205;51.438;-2.006;2022-11-18T15:19:22;10.07;;;2.13;;
66667;SDS011;57205;51.438;-2.006;2022-11-18T15:21:47;5.30;;;1.77;;
66667;SDS011;57205;51.438;-2.006;2022-11-18T15:24:13;7.80;;;1.75;;
66667;SDS011;57205;51.438;-2.006;2022-11-18T15:26:43;5.80;;;1.48;;
66667;SDS011;57205;51.438;-2.006;2022-11-18T15:29:20;3.28;;;0.95;;
66667;SDS011;57205;51.438;-2.006;2022-11-18T15:31:49;5.63;;;1.15;;
66667;SDS011;57205;51.438;-2.006;2022-11-18T15:34:15;4.97;;;1.70;;
66667;SDS011;57205;51.438;-2.006;2022-11-18T15:36:42;4.07;;;1.88;;
66667;SDS011;57205;51.438;-2.006;2022-11-18T15:39:08;5.47;;;1.85;;
66667;SDS011;57205;51.438;-2.006;2022-11-18T15:41:34;8.18;;;1.77;;
66667;SDS011;57205;51.438;-2.006;2022-11-18T15:44:02;3.92;;;1.40;;
66667;SDS011;57205;51.438;-2.006;2022-11-18T15:46:28;5.72;;;1.23;;
66667;SDS011;57205;51.438;-2.006;2022-11-18T15:48:58;7.18;;;2.22;;
66667;SDS011;57205;51.438;-2.006;2022-11-18T15:51:24;6.95;;;1.98;;
66667;SDS011;57205;51.438;-2.006;2022-11-18T15:53:52;5.05;;;1.85;;
66667;SDS011;57205;51.438;-2.006;2022-11-18T15:58:57;6.28;;;1.70;;
66667;SDS011;57205;51.438;-2.006;2022-11-18T16:01:24;3.28;;;1.40;;
66667;SDS011;57205;51.438;-2.006;2022-11-18T16:03:52;5.90;;;1.70;;
66667;SDS011;57205;51.438;-2.006;2022-11-18T16:06:17;7.95;;;2.17;;
66667;SDS011;57205;51.438;-2.006;2022-11-18T16:08:43;7.55;;;1.88;;
66667;SDS011;57205;51.438;-2.006;2022-11-18T16:11:13;8.32;;;1.83;;
66667;SDS011;57205;51.438;-2.006;2022-11-18T16:14:07;8.55;;;1.35;;
66667;SDS011;57205;51.438;-2.006;2022-11-18T16:16:34;3.35;;;1.35;;
66667;SDS011;57205;51.438;-2.006;2022-11-18T16:19:02;7.95;;;1.55;;
66667;SDS011;57205;51.438;-2.006;2022-11-18T16:21:30;11.70;;;1.42;;
66667;SDS011;57205;51.438;-2.006;2022-11-18T16:23:58;4.47;;;1.48;;
66667;SDS011;57205;51.438;-2.006;2022-11-18T16:26:25;8.52;;;1.75;;
66667;SDS011;57205;51.438;-2.006;2022-11-18T16:28:52;5.28;;;1.40;;
66667;SDS011;57205;51.438;-2.006;2022-11-18T16:31:18;6.20;;;1.50;;
66667;SDS011;57205;51.438;-2.006;2022-11-18T16:34:06;4.97;;;1.90;;
66667;SDS011;57205;51.438;-2.006;2022-11-18T16:36:32;5.30;;;1.77;;
66667;SDS011;57205;51.438;-2.006;2022-11-18T16:39:11;7.78;;;1.98;;
66667;SDS011;57205;51.438;-2.006;2022-11-18T16:41:39;6.97;;;1.60;;
66667;SDS011;57205;51.438;-2.006;2022-11-18T16:44:06;5.00;;;1.55;;
66667;SDS011;57205;51.438;-2.006;2022-11-18T16:46:33;4.43;;;1.70;;
66667;SDS011;57205;51.438;-2.006;2022-11-18T16:49:00;7.65;;;1.60;;
66667;SDS011;57205;51.438;-2.006;2022-11-18T16:51:28;6.38;;;1.77;;
66667;SDS011;57205;51.438;-2.006;2022-11-18T16:53:56;5.60;;;1.60;;
66667;SDS011;57205;51.438;-2.006;2022-11-18T16:56:24;9.05;;;2.38;;
66667;SDS011;57205;51.438;-2.006;2022-11-18T16:58:57;8.15;;;1.92;;
66667;SDS011;57205;51.438;-2.006;2022-11-18T17:01:23;10.52;;;1.85;;
66667;SDS011;57205;51.438;-2.006;2022-11-18T17:03:50;5.93;;;1.60;;
66667;SDS011;57205;51.438;-2.006;2022-11-18T17:06:16;9.57;;;1.52;;
66667;SDS011;57205;51.438;-2.006;2022-11-18T17:08:42;5.75;;;1.80;;
66667;SDS011;57205;51.438;-2.006;2022-11-18T17:11:07;9.18;;;2.03;;
66667;SDS011;57205;51.438;-2.006;2022-11-18T17:13:34;5.65;;;1.90;;
66667;SDS011;57205;51.438;-2.006;2022-11-18T17:16:19;6.05;;;1.67;;
66667;SDS011;57205;51.438;-2.006;2022-11-18T17:20:55;15.52;;;3.83;;
66667;SDS011;57205;51.438;-2.006;2022-11-18T17:23:21;11.70;;;5.20;;
66667;SDS011;57205;51.438;-2.006;2022-11-18T17:25:46;5.97;;;1.98;;
66667;SDS011;57205;51.438;-2.006;2022-11-18T17:28:12;4.32;;;1.65;;
66667;SDS011;57205;51.438;-2.006;2022-11-18T17:30:37;8.65;;;2.58;;
66667;SDS011;57205;51.438;-2.006;2022-11-18T17:33:03;6.60;;;2.38;;
66667;SDS011;57205;51.438;-2.006;2022-11-18T17:35:28;5.65;;;1.88;;
66667;SDS011;57205;51.438;-2.006;2022-11-18T17:37:54;4.18;;;1.50;;
66667;SDS011;57205;51.438;-2.006;2022-11-18T17:40:19;8.20;;;1.83;;
66667;SDS011;57205;51.438;-2.006;2022-11-18T17:42:45;5.47;;;1.98;;
66667;SDS011;57205;51.438;-2.006;2022-11-18T17:45:10;6.00;;;1.90;;
66667;SDS011;57205;51.438;-2.006;2022-11-18T17:47:36;7.10;;;1.80;;
66667;SDS011;57205;51.438;-2.006;2022-11-18T17:50:01;5.57;;;1.77;;
66667;SDS011;57205;51.438;-2.006;2022-11-18T17:52:27;6.10;;;2.13;;
66667;SDS011;57205;51.438;-2.006;2022-11-18T17:54:52;7.00;;;1.80;;
66667;SDS011;57205;51.438;-2.006;2022-11-18T17:57:18;6.63;;;2.42;;
66667;SDS011;57205;51.438;-2.006;2022-11-18T17:59:43;6.45;;;2.05;;
66667;SDS011;57205;51.438;-2.006;2022-11-18T18:02:10;8.52;;;2.88;;
66667;SDS011;57205;51.438;-2.006;2022-11-18T18:04:36;9.07;;;3.03;;
66667;SDS011;57205;51.438;-2.006;2022-11-18T18:07:01;10.55;;;3.38;;
66667;SDS011;57205;51.438;-2.006;2022-11-18T18:09:27;9.43;;;3.47;;
66667;SDS011;57205;51.438;-2.006;2022-11-18T18:11:52;10.85;;;2.72;;
66667;SDS011;57205;51.438;-2.006;2022-11-18T18:14:17;7.93;;;2.20;;
66667;SDS011;57205;51.438;-2.006;2022-11-18T18:16:44;6.35;;;2.95;;
66667;SDS011;57205;51.438;-2.006;2022-11-18T18:19:15;7.78;;;1.80;;
66667;SDS011;57205;51.438;-2.006;2022-11-18T18:21:42;8.13;;;1.90;;
66667;SDS011;57205;51.438;-2.006;2022-11-18T18:24:09;5.30;;;2.35;;
66667;SDS011;57205;51.438;-2.006;2022-11-18T18:26:36;4.07;;;1.70;;
66667;SDS011;57205;51.438;-2.006;2022-11-18T18:29:02;8.38;;;2.25;;
66667;SDS011;57205;51.438;-2.006;2022-11-18T18:31:28;5.20;;;1.58;;
66667;SDS011;57205;51.438;-2.006;2022-11-18T18:33:57;8.18;;;1.92;;
66667;SDS011;57205;51.438;-2.006;2022-11-18T18:36:23;5.75;;;2.20;;
66667;SDS011;57205;51.438;-2.006;2022-11-18T18:38:49;10.50;;;2.45;;
66667;SDS011;57205;51.438;-2.006;2022-11-18T18:41:15;7.10;;;3.08;;
66667;SDS011;57205;51.438;-2.006;2022-11-18T18:43:43;7.03;;;2.22;;
66667;SDS011;57205;51.438;-2.006;2022-11-18T18:46:17;8.07;;;3.38;;
66667;SDS011;57205;51.438;-2.006;2022-11-18T18:51:42;9.25;;;4.10;;
66667;SDS011;57205;51.438;-2.006;2022-11-18T18:54:10;6.32;;;2.35;;
66667;SDS011;57205;51.438;-2.006;2022-11-18T18:56:37;6.82;;;2.40;;
66667;SDS011;57205;51.438;-2.006;2022-11-18T18:59:03;9.02;;;3.08;;
66667;SDS011;57205;51.438;-2.006;2022-11-18T19:01:29;10.63;;;2.67;;
66667;SDS011;57205;51.438;-2.006;2022-11-18T19:03:55;8.00;;;3.05;;
66667;SDS011;57205;51.438;-2.006;2022-11-18T19:09:00;13.25;;;4.30;;
66667;SDS011;57205;51.438;-2.006;2022-11-18T19:11:26;5.57;;;2.53;;
66667;SDS011;57205;51.438;-2.006;2022-11-18T19:14:12;5.55;;;2.70;;
66667;SDS011;57205;51.438;-2.006;2022-11-18T19:16:39;7.18;;;2.58;;
66667;SDS011;57205;51.438;-2.006;2022-11-18T19:19:06;9.02;;;2.75;;
66667;SDS011;57205;51.438;-2.006;2022-11-18T19:21:33;12.52;;;6.13;;
66667;SDS011;57205;51.438;-2.006;2022-11-18T19:24:02;36.75;;;20.90;;
66667;SDS011;57205;51.438;-2.006;2022-11-18T19:26:28;9.55;;;3.60;;
66667;SDS011;57205;51.438;-2.006;2022-11-18T19:28:55;9.90;;;3.10;;
66667;SDS011;57205;51.438;-2.006;2022-11-18T19:31:21;13.32;;;3.33;;
66667;SDS011;57205;51.438;-2.006;2022-11-18T19:33:46;12.15;;;2.53;;
66667;SDS011;57205;51.438;-2.006;2022-11-18T19:36:12;9.80;;;3.00;;
66667;SDS011;57205;51.438;-2.006;2022-11-18T19:38:38;5.63;;;2.60;;
66667;SDS011;57205;51.438;-2.006;2022-11-18T19:41:04;9.02;;;2.47;;
66667;SDS011;57205;51.438;-2.006;2022-11-18T19:43:31;8.55;;;3.22;;
66667;SDS011;57205;51.438;-2.006;2022-11-18T19:45:57;11.77;;;3.40;;
66667;SDS011;57205;51.438;-2.006;2022-11-18T19:48:23;12.93;;;3.92;;
66667;SDS011;57205;51.438;-2.006;2022-11-18T19:50:49;11.00;;;5.22;;
66667;SDS011;57205;51.438;-2.006;2022-11-18T19:53:15;10.82;;;6.80;;
66667;SDS011;57205;51.438;-2.006;2022-11-18T19:55:57;14.18;;;7.70;;
66667;SDS011;57205;51.438;-2.006;2022-11-18T19:58:24;18.92;;;9.05;;
66667;SDS011;57205;51.438;-2.006;2022-11-18T20:00:50;12.70;;;6.28;;
66667;SDS011;57205;51.438;-2.006;2022-11-18T20:03:16;14.57;;;6.03;;
66667;SDS011;57205;51.438;-2.006;2022-11-18T20:05:42;13.18;;;6.32;;
66667;SDS011;57205;51.438;-2.006;2022-11-18T20:08:18;9.90;;;5.07;;
66667;SDS011;57205;51.438;-2.006;2022-11-18T20:10:49;12.52;;;5.47;;
66667;SDS011;57205;51.438;-2.006;2022-11-18T20:13:16;18.08;;;11.10;;
66667;SDS011;57205;51.438;-2.006;2022-11-18T20:15:42;20.75;;;12.10;;
66667;SDS011;57205;51.438;-2.006;2022-11-18T20:18:08;17.52;;;10.30;;
66667;SDS011;57205;51.438;-2.006;2022-11-18T20:20:34;20.60;;;9.35;;
66667;SDS011;57205;51.438;-2.006;2022-11-18T20:23:00;17.60;;;11.20;;
66667;SDS011;57205;51.438;-2.006;2022-11-18T20:25:25;20.70;;;10.32;;
66667;SDS011;57205;51.438;-2.006;2022-11-18T20:27:51;18.38;;;10.27;;
66667;SDS011;57205;51.438;-2.006;2022-11-18T20:30:18;23.25;;;11.05;;
66667;SDS011;57205;51.438;-2.006;2022-11-18T20:32:44;19.00;;;10.52;;
66667;SDS011;57205;51.438;-2.006;2022-11-18T20:35:10;17.25;;;11.65;;
66667;SDS011;57205;51.438;-2.006;2022-11-18T20:37:37;20.85;;;12.15;;
66667;SDS011;57205;51.438;-2.006;2022-11-18T20:40:03;18.45;;;11.38;;
66667;SDS011;57205;51.438;-2.006;2022-11-18T20:42:29;20.90;;;11.13;;
66667;SDS011;57205;51.438;-2.006;2022-11-18T20:45:13;19.40;;;10.95;;
66667;SDS011;57205;51.438;-2.006;2022-11-18T20:47:39;34.05;;;17.92;;
66667;SDS011;57205;51.438;-2.006;2022-11-18T20:50:05;24.98;;;15.57;;
66667;SDS011;57205;51.438;-2.006;2022-11-18T20:52:34;21.13;;;12.73;;
66667;SDS011;57205;51.438;-2.006;2022-11-18T20:55:00;22.75;;;13.57;;
66667;SDS011;57205;51.438;-2.006;2022-11-18T20:57:26;24.20;;;13.30;;
66667;SDS011;57205;51.438;-2.006;2022-11-18T20:59:52;21.50;;;12.98;;
66667;SDS011;57205;51.438;-2.006;2022-11-18T21:02:17;28.58;;;15.80;;
66667;SDS011;57205;51.438;-2.006;2022-11-18T21:04:42;31.08;;;17.98;;
66667;SDS011;57205;51.438;-2.006;2022-11-18T21:07:08;31.45;;;18.05;;
66667;SDS011;57205;51.438;-2.006;2022-11-18T21:09:33;29.65;;;16.85;;
66667;SDS011;57205;51.438;-2.006;2022-11-18T21:11:59;22.15;;;15.30;;
66667;SDS011;57205;51.438;-2.006;2022-11-18T21:14:25;27.50;;;15.90;;
66667;SDS011;57205;51.438;-2.006;2022-11-18T21:16:54;22.30;;;14.43;;
66667;SDS011;57205;51.438;-2.006;2022-11-18T21:19:28;23.65;;;14.18;;
66667;SDS011;57205;51.438;-2.006;2022-11-18T21:21:57;31.70;;;15.63;;
66667;SDS011;57205;51.438;-2.006;2022-11-18T21:24:30;29.48;;;16.55;;
66667;SDS011;57205;51.438;-2.006;2022-11-18T21:29:26;23.05;;;13.13;;
66667;SDS011;57205;51.438;-2.006;2022-11-18T21:31:53;17.92;;;11.98;;
66667;SDS011;57205;51.438;-2.006;2022-11-18T21:34:20;24.08;;;12.13;;
66667;SDS011;57205;51.438;-2.006;2022-11-18T21:36:46;19.83;;;11.38;;
66667;SDS011;57205;51.438;-2.006;2022-11-18T21:39:13;17.60;;;11.70;;
66667;SDS011;57205;51.438;-2.006;2022-11-18T21:41:39;23.48;;;10.88;;
66667;SDS011;57205;51.438;-2.006;2022-11-18T21:44:09;19.52;;;10.65;;
66667;SDS011;57205;51.438;-2.006;2022-11-18T21:46:36;19.35;;;10.68;;
66667;SDS011;57205;51.438;-2.006;2022-11-18T21:49:03;27.90;;;16.40;;
66667;SDS011;57205;51.438;-2.006;2022-11-18T21:51:29;35.97;;;15.30;;
66667;SDS011;57205;51.438;-2.006;2022-11-18T21:53:58;25.85;;;14.98;;
66667;SDS011;57205;51.438;-2.006;2022-11-18T21:56:25;28.52;;;16.17;;
66667;SDS011;57205;51.438;-2.006;2022-11-18T21:58:55;31.98;;;16.85;;
66667;SDS011;57205;51.438;-2.006;2022-11-18T22:01:29;28.75;;;16.17;;
66667;SDS011;57205;51.438;-2.006;2022-11-18T22:03:57;31.60;;;16.48;;
66667;SDS011;57205;51.438;-2.006;2022-11-18T22:06:24;32.10;;;16.42;;
66667;SDS011;57205;51.438;-2.006;2022-11-18T22:08:53;35.42;;;17.52;;
66667;SDS011;57205;51.438;-2.006;2022-11-18T22:11:19;32.28;;;18.05;;
66667;SDS011;57205;51.438;-2.006;2022-11-18T22:13:48;27.88;;;16.17;;
66667;SDS011;57205;51.438;-2.006;2022-11-18T22:16:15;28.63;;;16.77;;
66667;SDS011;57205;51.438;-2.006;2022-11-18T22:18:43;28.65;;;16.90;;
66667;SDS011;57205;51.438;-2.006;2022-11-18T22:21:17;31.40;;;16.45;;
66667;SDS011;57205;51.438;-2.006;2022-11-18T22:23:44;21.25;;;13.30;;
66667;SDS011;57205;51.438;-2.006;2022-11-18T22:26:11;22.00;;;13.02;;
66667;SDS011;57205;51.438;-2.006;2022-11-18T22:28:38;25.70;;;14.52;;
66667;SDS011;57205;51.438;-2.006;2022-11-18T22:31:05;31.65;;;16.85;;
66667;SDS011;57205;51.438;-2.006;2022-11-18T22:33:34;32.92;;;17.45;;
66667;SDS011;57205;51.438;-2.006;2022-11-18T22:36:00;27.65;;;15.45;;
66667;SDS011;57205;51.438;-2.006;2022-11-18T22:38:30;22.38;;;14.13;;
66667;SDS011;57205;51.438;-2.006;2022-11-18T22:41:15;27.92;;;16.40;;
66667;SDS011;57205;51.438;-2.006;2022-11-18T22:44:05;31.67;;;17.13;;
66667;SDS011;57205;51.438;-2.006;2022-11-18T22:46:31;27.42;;;16.30;;
66667;SDS011;57205;51.438;-2.006;2022-11-18T22:48:58;29.42;;;16.48;;
66667;SDS011;57205;51.438;-2.006;2022-11-18T22:51:24;32.75;;;15.88;;
66667;SDS011;57205;51.438;-2.006;2022-11-18T22:53:50;28.17;;;14.82;;
66667;SDS011;57205;51.438;-2.006;2022-11-18T22:56:16;23.63;;;13.35;;
66667;SDS011;57205;51.438;-2.006;2022-11-18T22:58:42;22.13;;;12.98;;
66667;SDS011;57205;51.438;-2.006;2022-11-18T23:01:09;20.67;;;12.85;;
66667;SDS011;57205;51.438;-2.006;2022-11-18T23:03:36;20.33;;;12.63;;
66667;SDS011;57205;51.438;-2.006;2022-11-18T23:06:02;23.73;;;13.82;;
66667;SDS011;57205;51.438;-2.006;2022-11-18T23:08:33;28.42;;;16.23;;
66667;SDS011;57205;51.438;-2.006;2022-11-18T23:11:08;20.85;;;13.57;;
66667;SDS011;57205;51.438;-2.006;2022-11-18T23:13:38;22.63;;;13.82;;
66667;SDS011;57205;51.438;-2.006;2022-11-18T23:16:28;26.10;;;13.68;;
66667;SDS011;57205;51.438;-2.006;2022-11-18T23:18:57;26.50;;;14.45;;
66667;SDS011;57205;51.438;-2.006;2022-11-18T23:21:23;21.52;;;14.80;;
66667;SDS011;57205;51.438;-2.006;2022-11-18T23:23:49;24.65;;;14.75;;
66667;SDS011;57205;51.438;-2.006;2022-11-18T23:26:14;21.83;;;13.00;;
66667;SDS011;57205;51.438;-2.006;2022-11-18T23:28:40;18.77;;;11.90;;
66667;SDS011;57205;51.438;-2.006;2022-11-18T23:31:10;19.50;;;10.95;;
66667;SDS011;57205;51.438;-2.006;2022-11-18T23:33:44;19.52;;;10.38;;
66667;SDS011;57205;51.438;-2.006;2022-11-18T23:36:10;16.67;;;10.68;;
66667;SDS011;57205;51.438;-2.006;2022-11-18T23:38:38;24.40;;;11.88;;
66667;SDS011;57205;51.438;-2.006;2022-11-18T23:41:04;16.55;;;10.02;;
66667;SDS011;57205;51.438;-2.006;2022-11-18T23:43:36;16.15;;;9.30;;
66667;SDS011;57205;51.438;-2.006;2022-11-18T23:46:02;19.98;;;10.82;;
66667;SDS011;57205;51.438;-2.006;2022-11-18T23:48:32;19.05;;;9.27;;
66667;SDS011;57205;51.438;-2.006;2022-11-18T23:51:06;16.77;;;9.35;;
66667;SDS011;57205;51.438;-2.006;2022-11-18T23:53:40;21.08;;;12.23;;
66667;SDS011;57205;51.438;-2.006;2022-11-18T23:56:07;18.08;;;10.90;;
66667;SDS011;57205;51.438;-2.006;2022-11-18T23:58:38;15.38;;;8.88;;
